sensor_id;sensor_type;location;lat;lon;timestamp;temperature;humidity
40538;DHT22;27925;41.874;12.526;2022-08-11T00:01:51;27.30;58.70
40538;DHT22;27925;41.874;12.526;2022-08-11T00:04:20;27.30;58.70
40538;DHT22;27925;41.874;12.526;2022-08-11T00:06:47;27.30;58.80
40538;DHT22;27925;41.874;12.526;2022-08-11T00:09:19;27.20;58.90
40538;DHT22;27925;41.874;12.526;2022-08-11T00:11:53;27.10;59.20
40538;DHT22;27925;41.874;12.526;2022-08-11T00:14:23;27.10;59.50
40538;DHT22;27925;41.874;12.526;2022-08-11T00:16:59;27.10;59.50
40538;DHT22;27925;41.874;12.526;2022-08-11T00:19:31;27.10;59.40
40538;DHT22;27925;41.874;12.526;2022-08-11T00:21:58;27.10;59.40
40538;DHT22;27925;41.874;12.526;2022-08-11T00:24:34;27.10;59.50
40538;DHT22;27925;41.874;12.526;2022-08-11T00:27:03;27.10;59.60
40538;DHT22;27925;41.874;12.526;2022-08-11T00:29:29;27.00;60.10
40538;DHT22;27925;41.874;12.526;2022-08-11T00:31:56;27.00;59.60
40538;DHT22;27925;41.874;12.526;2022-08-11T00:34:30;27.00;59.90
40538;DHT22;27925;41.874;12.526;2022-08-11T00:37:06;27.00;59.80
40538;DHT22;27925;41.874;12.526;2022-08-11T00:39:35;27.00;60.00
40538;DHT22;27925;41.874;12.526;2022-08-11T01:12:19;26.80;61.00
40538;DHT22;27925;41.874;12.526;2022-08-11T01:55:31;26.30;62.60
40538;DHT22;27925;41.874;12.526;2022-08-11T01:58:32;26.30;62.90
40538;DHT22;27925;41.874;12.526;2022-08-11T02:06:54;26.30;63.00
40538;DHT22;27925;41.874;12.526;2022-08-11T02:15:11;26.10;63.10
40538;DHT22;27925;41.874;12.526;2022-08-11T02:23:57;26.10;63.40
40538;DHT22;27925;41.874;12.526;2022-08-11T02:26:43;26.10;63.70
40538;DHT22;27925;41.874;12.526;2022-08-11T02:29:24;26.00;63.20
40538;DHT22;27925;41.874;12.526;2022-08-11T02:37:34;26.00;62.20
40538;DHT22;27925;41.874;12.526;2022-08-11T02:40:25;26.00;62.00
40538;DHT22;27925;41.874;12.526;2022-08-11T02:43:03;25.90;61.30
40538;DHT22;27925;41.874;12.526;2022-08-11T02:51:29;25.90;61.80
40538;DHT22;27925;41.874;12.526;2022-08-11T02:54:28;25.80;62.00
40538;DHT22;27925;41.874;12.526;2022-08-11T03:10:50;25.60;61.00
40538;DHT22;27925;41.874;12.526;2022-08-11T03:14:20;25.60;61.60
40538;DHT22;27925;41.874;12.526;2022-08-11T03:17:28;25.60;60.80
40538;DHT22;27925;41.874;12.526;2022-08-11T03:20:18;25.60;61.00
40538;DHT22;27925;41.874;12.526;2022-08-11T03:25:39;25.50;60.90
40538;DHT22;27925;41.874;12.526;2022-08-11T03:36:19;25.50;60.40
40538;DHT22;27925;41.874;12.526;2022-08-11T03:55:55;25.10;61.10
40538;DHT22;27925;41.874;12.526;2022-08-11T04:04:28;25.10;61.80
40538;DHT22;27925;41.874;12.526;2022-08-11T04:33:02;25.00;61.70
40538;DHT22;27925;41.874;12.526;2022-08-11T04:35:56;25.00;61.70
40538;DHT22;27925;41.874;12.526;2022-08-11T04:56:20;24.70;61.10
40538;DHT22;27925;41.874;12.526;2022-08-11T05:11:11;24.90;60.50
40538;DHT22;27925;41.874;12.526;2022-08-11T05:13:49;24.90;61.30
40538;DHT22;27925;41.874;12.526;2022-08-11T05:16:45;24.90;61.30
40538;DHT22;27925;41.874;12.526;2022-08-11T05:19:31;24.90;61.20
40538;DHT22;27925;41.874;12.526;2022-08-11T05:22:17;24.90;61.30
40538;DHT22;27925;41.874;12.526;2022-08-11T05:30:47;25.10;60.90
40538;DHT22;27925;41.874;12.526;2022-08-11T05:33:44;25.20;60.30
40538;DHT22;27925;41.874;12.526;2022-08-11T05:36:31;25.30;59.60
40538;DHT22;27925;41.874;12.526;2022-08-11T05:39:04;25.50;59.50
40538;DHT22;27925;41.874;12.526;2022-08-11T05:41:50;25.90;58.80
40538;DHT22;27925;41.874;12.526;2022-08-11T05:44:44;26.20;58.30
40538;DHT22;27925;41.874;12.526;2022-08-11T05:47:28;26.50;57.60
40538;DHT22;27925;41.874;12.526;2022-08-11T05:50:14;26.80;57.00
40538;DHT22;27925;41.874;12.526;2022-08-11T05:53:00;27.00;56.40
40538;DHT22;27925;41.874;12.526;2022-08-11T05:55:46;27.30;55.60
40538;DHT22;27925;41.874;12.526;2022-08-11T05:58:38;27.40;55.70
40538;DHT22;27925;41.874;12.526;2022-08-11T06:01:13;27.60;55.10
40538;DHT22;27925;41.874;12.526;2022-08-11T06:03:42;27.70;54.50
40538;DHT22;27925;41.874;12.526;2022-08-11T06:06:28;27.80;54.00
40538;DHT22;27925;41.874;12.526;2022-08-11T06:08:55;27.80;53.80
40538;DHT22;27925;41.874;12.526;2022-08-11T06:11:22;28.00;53.80
40538;DHT22;27925;41.874;12.526;2022-08-11T06:13:49;28.30;53.40
40538;DHT22;27925;41.874;12.526;2022-08-11T06:16:22;28.50;52.70
40538;DHT22;27925;41.874;12.526;2022-08-11T06:18:49;28.70;52.50
40538;DHT22;27925;41.874;12.526;2022-08-11T06:21:16;28.80;52.20
40538;DHT22;27925;41.874;12.526;2022-08-11T06:23:43;29.00;51.80
40538;DHT22;27925;41.874;12.526;2022-08-11T06:26:10;28.90;51.80
40538;DHT22;27925;41.874;12.526;2022-08-11T06:28:39;28.70;52.00
40538;DHT22;27925;41.874;12.526;2022-08-11T06:31:25;28.80;52.20
40538;DHT22;27925;41.874;12.526;2022-08-11T06:34:14;28.90;52.00
40538;DHT22;27925;41.874;12.526;2022-08-11T06:40:18;28.80;50.60
40538;DHT22;27925;41.874;12.526;2022-08-11T06:48:20;28.90;50.80
40538;DHT22;27925;41.874;12.526;2022-08-11T06:50:51;29.00;51.50
40538;DHT22;27925;41.874;12.526;2022-08-11T06:53:52;29.10;51.50
40538;DHT22;27925;41.874;12.526;2022-08-11T06:56:29;29.20;50.20
40538;DHT22;27925;41.874;12.526;2022-08-11T06:59:16;29.20;51.30
40538;DHT22;27925;41.874;12.526;2022-08-11T07:02:23;29.30;51.30
40538;DHT22;27925;41.874;12.526;2022-08-11T07:14:01;29.40;49.70
40538;DHT22;27925;41.874;12.526;2022-08-11T07:16:49;29.50;49.30
40538;DHT22;27925;41.874;12.526;2022-08-11T07:19:24;29.60;49.20
40538;DHT22;27925;41.874;12.526;2022-08-11T07:22:09;29.80;50.50
40538;DHT22;27925;41.874;12.526;2022-08-11T07:25:06;29.80;50.40
40538;DHT22;27925;41.874;12.526;2022-08-11T07:28:00;29.70;50.20
40538;DHT22;27925;41.874;12.526;2022-08-11T07:30:46;29.80;50.40
40538;DHT22;27925;41.874;12.526;2022-08-11T07:33:21;29.80;50.20
40538;DHT22;27925;41.874;12.526;2022-08-11T07:35:54;30.00;49.00
40538;DHT22;27925;41.874;12.526;2022-08-11T07:38:25;30.10;50.00
40538;DHT22;27925;41.874;12.526;2022-08-11T07:41:19;30.00;49.90
40538;DHT22;27925;41.874;12.526;2022-08-11T07:43:51;30.10;49.50
40538;DHT22;27925;41.874;12.526;2022-08-11T07:46:20;30.20;50.30
40538;DHT22;27925;41.874;12.526;2022-08-11T07:49:07;30.10;49.90
40538;DHT22;27925;41.874;12.526;2022-08-11T07:51:54;30.10;49.90
40538;DHT22;27925;41.874;12.526;2022-08-11T07:54:40;30.20;50.00
40538;DHT22;27925;41.874;12.526;2022-08-11T07:57:09;30.20;49.70
40538;DHT22;27925;41.874;12.526;2022-08-11T07:59:56;30.30;49.70
40538;DHT22;27925;41.874;12.526;2022-08-11T08:02:42;30.30;49.60
40538;DHT22;27925;41.874;12.526;2022-08-11T08:05:27;30.50;49.40
40538;DHT22;27925;41.874;12.526;2022-08-11T08:08:13;30.60;49.60
40538;DHT22;27925;41.874;12.526;2022-08-11T08:10:58;30.80;49.40
40538;DHT22;27925;41.874;12.526;2022-08-11T08:13:44;30.80;49.60
40538;DHT22;27925;41.874;12.526;2022-08-11T08:16:31;30.80;49.70
40538;DHT22;27925;41.874;12.526;2022-08-11T08:19:19;30.90;49.40
40538;DHT22;27925;41.874;12.526;2022-08-11T08:21:49;31.00;49.50
40538;DHT22;27925;41.874;12.526;2022-08-11T08:24:22;31.00;49.30
40538;DHT22;27925;41.874;12.526;2022-08-11T08:26:48;31.00;49.30
40538;DHT22;27925;41.874;12.526;2022-08-11T08:29:30;31.10;49.90
40538;DHT22;27925;41.874;12.526;2022-08-11T08:32:17;31.20;49.30
40538;DHT22;27925;41.874;12.526;2022-08-11T08:34:48;31.30;50.80
40538;DHT22;27925;41.874;12.526;2022-08-11T08:37:20;31.20;51.30
40538;DHT22;27925;41.874;12.526;2022-08-11T08:39:53;31.30;51.80
40538;DHT22;27925;41.874;12.526;2022-08-11T08:42:27;31.30;51.40
40538;DHT22;27925;41.874;12.526;2022-08-11T08:45:08;31.30;50.20
40538;DHT22;27925;41.874;12.526;2022-08-11T08:47:40;31.20;51.60
40538;DHT22;27925;41.874;12.526;2022-08-11T08:50:14;31.30;51.80
40538;DHT22;27925;41.874;12.526;2022-08-11T08:52:58;31.40;50.80
40538;DHT22;27925;41.874;12.526;2022-08-11T08:55:27;31.50;51.70
40538;DHT22;27925;41.874;12.526;2022-08-11T08:57:55;31.50;52.00
40538;DHT22;27925;41.874;12.526;2022-08-11T09:00:36;31.50;52.30
40538;DHT22;27925;41.874;12.526;2022-08-11T09:03:03;31.20;52.70
40538;DHT22;27925;41.874;12.526;2022-08-11T09:05:29;31.10;53.00
40538;DHT22;27925;41.874;12.526;2022-08-11T09:07:55;31.10;53.30
40538;DHT22;27925;41.874;12.526;2022-08-11T09:10:23;31.20;53.40
40538;DHT22;27925;41.874;12.526;2022-08-11T09:12:49;31.20;53.30
40538;DHT22;27925;41.874;12.526;2022-08-11T09:15:18;31.30;53.50
40538;DHT22;27925;41.874;12.526;2022-08-11T09:17:48;31.30;51.80
40538;DHT22;27925;41.874;12.526;2022-08-11T09:20:21;31.30;53.10
40538;DHT22;27925;41.874;12.526;2022-08-11T09:22:50;31.40;51.80
40538;DHT22;27925;41.874;12.526;2022-08-11T09:25:38;31.40;53.10
40538;DHT22;27925;41.874;12.526;2022-08-11T09:28:27;31.40;53.20
40538;DHT22;27925;41.874;12.526;2022-08-11T09:30:57;31.40;52.90
40538;DHT22;27925;41.874;12.526;2022-08-11T09:33:27;31.40;52.80
40538;DHT22;27925;41.874;12.526;2022-08-11T09:35:55;31.50;52.70
40538;DHT22;27925;41.874;12.526;2022-08-11T09:38:23;31.50;51.40
40538;DHT22;27925;41.874;12.526;2022-08-11T09:41:10;31.60;53.00
40538;DHT22;27925;41.874;12.526;2022-08-11T09:43:43;31.40;53.40
40538;DHT22;27925;41.874;12.526;2022-08-11T09:46:29;31.50;53.70
40538;DHT22;27925;41.874;12.526;2022-08-11T09:48:58;31.60;53.90
40538;DHT22;27925;41.874;12.526;2022-08-11T09:51:29;31.60;53.90
40538;DHT22;27925;41.874;12.526;2022-08-11T09:53:56;31.60;54.00
40538;DHT22;27925;41.874;12.526;2022-08-11T09:56:24;31.70;54.10
40538;DHT22;27925;41.874;12.526;2022-08-11T09:59:09;31.70;53.40
40538;DHT22;27925;41.874;12.526;2022-08-11T10:01:59;31.70;53.10
40538;DHT22;27925;41.874;12.526;2022-08-11T10:04:34;31.70;51.30
40538;DHT22;27925;41.874;12.526;2022-08-11T10:07:04;31.70;52.30
40538;DHT22;27925;41.874;12.526;2022-08-11T10:09:55;31.60;51.60
40538;DHT22;27925;41.874;12.526;2022-08-11T10:14:53;31.70;51.70
40538;DHT22;27925;41.874;12.526;2022-08-11T10:17:42;31.60;51.30
40538;DHT22;27925;41.874;12.526;2022-08-11T10:20:32;31.70;52.70
40538;DHT22;27925;41.874;12.526;2022-08-11T10:22:59;31.70;52.70
40538;DHT22;27925;41.874;12.526;2022-08-11T10:25:43;31.70;52.00
40538;DHT22;27925;41.874;12.526;2022-08-11T10:28:28;31.70;51.90
40538;DHT22;27925;41.874;12.526;2022-08-11T10:30:54;31.70;51.00
40538;DHT22;27925;41.874;12.526;2022-08-11T10:33:40;31.80;50.80
40538;DHT22;27925;41.874;12.526;2022-08-11T10:36:26;31.70;50.40
40538;DHT22;27925;41.874;12.526;2022-08-11T10:38:53;31.70;50.60
40538;DHT22;27925;41.874;12.526;2022-08-11T10:41:19;31.70;50.70
40538;DHT22;27925;41.874;12.526;2022-08-11T10:44:05;31.70;50.60
40538;DHT22;27925;41.874;12.526;2022-08-11T10:46:32;31.70;50.60
40538;DHT22;27925;41.874;12.526;2022-08-11T10:49:18;31.80;50.40
40538;DHT22;27925;41.874;12.526;2022-08-11T10:51:45;32.00;50.80
40538;DHT22;27925;41.874;12.526;2022-08-11T10:54:32;32.00;50.70
40538;DHT22;27925;41.874;12.526;2022-08-11T10:57:16;32.20;50.40
40538;DHT22;27925;41.874;12.526;2022-08-11T11:00:02;32.30;49.70
40538;DHT22;27925;41.874;12.526;2022-08-11T11:02:30;32.50;49.00
40538;DHT22;27925;41.874;12.526;2022-08-11T11:05:25;32.60;48.80
40538;DHT22;27925;41.874;12.526;2022-08-11T11:07:57;32.70;47.60
40538;DHT22;27925;41.874;12.526;2022-08-11T11:10:29;32.70;47.00
40538;DHT22;27925;41.874;12.526;2022-08-11T11:12:57;32.80;47.50
40538;DHT22;27925;41.874;12.526;2022-08-11T11:15:45;32.90;48.60
40538;DHT22;27925;41.874;12.526;2022-08-11T11:18:33;33.00;48.30
40538;DHT22;27925;41.874;12.526;2022-08-11T11:21:08;32.90;47.20
40538;DHT22;27925;41.874;12.526;2022-08-11T11:23:41;32.80;46.80
40538;DHT22;27925;41.874;12.526;2022-08-11T11:32:16;32.50;46.30
40538;DHT22;27925;41.874;12.526;2022-08-11T11:37:36;32.40;46.20
40538;DHT22;27925;41.874;12.526;2022-08-11T11:40:09;32.50;46.90
40538;DHT22;27925;41.874;12.526;2022-08-11T11:42:36;32.50;46.80
40538;DHT22;27925;41.874;12.526;2022-08-11T11:45:03;32.60;46.50
40538;DHT22;27925;41.874;12.526;2022-08-11T11:47:31;32.60;46.60
40538;DHT22;27925;41.874;12.526;2022-08-11T11:49:57;32.60;46.80
40538;DHT22;27925;41.874;12.526;2022-08-11T11:52:26;32.60;47.20
40538;DHT22;27925;41.874;12.526;2022-08-11T11:54:55;32.50;47.70
40538;DHT22;27925;41.874;12.526;2022-08-11T11:57:22;32.40;49.30
40538;DHT22;27925;41.874;12.526;2022-08-11T12:00:08;32.20;50.00
40538;DHT22;27925;41.874;12.526;2022-08-11T12:02:55;32.10;50.00
40538;DHT22;27925;41.874;12.526;2022-08-11T12:05:23;32.00;50.50
40538;DHT22;27925;41.874;12.526;2022-08-11T12:07:50;32.00;51.20
40538;DHT22;27925;41.874;12.526;2022-08-11T12:10:36;31.90;51.40
40538;DHT22;27925;41.874;12.526;2022-08-11T12:13:03;31.90;52.00
40538;DHT22;27925;41.874;12.526;2022-08-11T12:15:47;31.90;52.70
40538;DHT22;27925;41.874;12.526;2022-08-11T12:18:14;31.80;52.50
40538;DHT22;27925;41.874;12.526;2022-08-11T12:20:43;31.70;51.90
40538;DHT22;27925;41.874;12.526;2022-08-11T12:23:12;31.60;51.80
40538;DHT22;27925;41.874;12.526;2022-08-11T12:25:58;31.60;51.60
40538;DHT22;27925;41.874;12.526;2022-08-11T12:28:43;31.50;51.40
40538;DHT22;27925;41.874;12.526;2022-08-11T12:31:09;31.40;51.40
40538;DHT22;27925;41.874;12.526;2022-08-11T12:33:37;31.40;51.40
40538;DHT22;27925;41.874;12.526;2022-08-11T12:36:07;31.40;51.50
40538;DHT22;27925;41.874;12.526;2022-08-11T12:38:35;31.50;51.10
40538;DHT22;27925;41.874;12.526;2022-08-11T12:41:02;31.50;51.40
40538;DHT22;27925;41.874;12.526;2022-08-11T12:43:49;31.60;52.00
40538;DHT22;27925;41.874;12.526;2022-08-11T12:46:36;31.60;52.10
40538;DHT22;27925;41.874;12.526;2022-08-11T12:49:14;31.60;53.70
40538;DHT22;27925;41.874;12.526;2022-08-11T12:52:09;31.70;53.20
40538;DHT22;27925;41.874;12.526;2022-08-11T13:00:10;31.90;55.10
40538;DHT22;27925;41.874;12.526;2022-08-11T13:02:55;32.00;55.80
40538;DHT22;27925;41.874;12.526;2022-08-11T13:05:44;32.00;56.90
40538;DHT22;27925;41.874;12.526;2022-08-11T13:08:11;31.90;55.60
40538;DHT22;27925;41.874;12.526;2022-08-11T13:10:41;32.00;57.20
40538;DHT22;27925;41.874;12.526;2022-08-11T13:13:26;32.10;57.40
40538;DHT22;27925;41.874;12.526;2022-08-11T13:15:52;32.30;56.70
40538;DHT22;27925;41.874;12.526;2022-08-11T13:18:21;32.40;55.40
40538;DHT22;27925;41.874;12.526;2022-08-11T13:20:54;32.60;55.70
40538;DHT22;27925;41.874;12.526;2022-08-11T13:23:22;32.80;54.20
40538;DHT22;27925;41.874;12.526;2022-08-11T13:25:51;33.00;53.80
40538;DHT22;27925;41.874;12.526;2022-08-11T13:28:19;33.20;53.40
40538;DHT22;27925;41.874;12.526;2022-08-11T13:30:46;33.30;53.10
40538;DHT22;27925;41.874;12.526;2022-08-11T13:33:32;33.40;53.40
40538;DHT22;27925;41.874;12.526;2022-08-11T13:35:59;33.50;52.90
40538;DHT22;27925;41.874;12.526;2022-08-11T13:38:26;33.70;52.90
40538;DHT22;27925;41.874;12.526;2022-08-11T13:40:53;33.80;52.20
40538;DHT22;27925;41.874;12.526;2022-08-11T13:43:21;33.90;51.80
40538;DHT22;27925;41.874;12.526;2022-08-11T13:45:48;33.90;51.50
40538;DHT22;27925;41.874;12.526;2022-08-11T13:48:15;33.90;51.40
40538;DHT22;27925;41.874;12.526;2022-08-11T13:50:43;34.10;50.80
40538;DHT22;27925;41.874;12.526;2022-08-11T13:53:29;34.10;50.40
40538;DHT22;27925;41.874;12.526;2022-08-11T13:55:57;34.10;50.40
40538;DHT22;27925;41.874;12.526;2022-08-11T13:58:24;34.00;49.90
40538;DHT22;27925;41.874;12.526;2022-08-11T14:00:53;33.90;49.90
40538;DHT22;27925;41.874;12.526;2022-08-11T14:03:24;33.80;49.80
40538;DHT22;27925;41.874;12.526;2022-08-11T14:05:52;33.70;50.00
40538;DHT22;27925;41.874;12.526;2022-08-11T14:08:25;33.50;50.40
40538;DHT22;27925;41.874;12.526;2022-08-11T14:10:55;33.40;50.30
40538;DHT22;27925;41.874;12.526;2022-08-11T14:13:42;33.30;50.20
40538;DHT22;27925;41.874;12.526;2022-08-11T14:16:19;33.20;50.30
40538;DHT22;27925;41.874;12.526;2022-08-11T14:18:47;33.20;50.20
40538;DHT22;27925;41.874;12.526;2022-08-11T14:21:17;33.20;50.50
40538;DHT22;27925;41.874;12.526;2022-08-11T14:24:02;33.20;50.60
40538;DHT22;27925;41.874;12.526;2022-08-11T14:26:29;33.10;50.60
40538;DHT22;27925;41.874;12.526;2022-08-11T14:31:31;33.00;50.70
40538;DHT22;27925;41.874;12.526;2022-08-11T14:34:02;33.00;50.60
40538;DHT22;27925;41.874;12.526;2022-08-11T14:36:34;33.10;50.40
40538;DHT22;27925;41.874;12.526;2022-08-11T14:39:14;33.10;49.40
40538;DHT22;27925;41.874;12.526;2022-08-11T14:41:47;33.10;48.30
40538;DHT22;27925;41.874;12.526;2022-08-11T14:44:34;33.10;49.00
40538;DHT22;27925;41.874;12.526;2022-08-11T14:47:19;33.20;48.30
40538;DHT22;27925;41.874;12.526;2022-08-11T14:49:46;33.30;48.00
40538;DHT22;27925;41.874;12.526;2022-08-11T14:52:15;33.40;47.70
40538;DHT22;27925;41.874;12.526;2022-08-11T14:54:46;33.40;47.60
40538;DHT22;27925;41.874;12.526;2022-08-11T14:57:35;33.60;47.10
40538;DHT22;27925;41.874;12.526;2022-08-11T15:00:06;33.60;47.00
40538;DHT22;27925;41.874;12.526;2022-08-11T15:02:36;33.60;47.00
40538;DHT22;27925;41.874;12.526;2022-08-11T15:05:22;33.50;46.40
40538;DHT22;27925;41.874;12.526;2022-08-11T15:07:49;33.40;46.10
40538;DHT22;27925;41.874;12.526;2022-08-11T15:10:17;33.30;46.30
40538;DHT22;27925;41.874;12.526;2022-08-11T15:12:44;33.20;46.20
40538;DHT22;27925;41.874;12.526;2022-08-11T15:15:11;33.20;46.50
40538;DHT22;27925;41.874;12.526;2022-08-11T15:17:59;33.10;46.60
40538;DHT22;27925;41.874;12.526;2022-08-11T15:20:27;33.10;46.50
40538;DHT22;27925;41.874;12.526;2022-08-11T15:23:12;33.10;46.10
40538;DHT22;27925;41.874;12.526;2022-08-11T15:26:01;33.00;45.90
40538;DHT22;27925;41.874;12.526;2022-08-11T15:28:32;33.00;46.10
40538;DHT22;27925;41.874;12.526;2022-08-11T15:31:18;33.00;45.90
40538;DHT22;27925;41.874;12.526;2022-08-11T15:33:55;33.10;45.60
40538;DHT22;27925;41.874;12.526;2022-08-11T15:36:41;33.20;46.00
40538;DHT22;27925;41.874;12.526;2022-08-11T15:39:33;33.30;46.10
40538;DHT22;27925;41.874;12.526;2022-08-11T15:42:10;33.50;46.30
40538;DHT22;27925;41.874;12.526;2022-08-11T15:44:58;33.60;46.30
40538;DHT22;27925;41.874;12.526;2022-08-11T15:47:55;33.70;46.10
40538;DHT22;27925;41.874;12.526;2022-08-11T15:50:30;33.80;46.10
40538;DHT22;27925;41.874;12.526;2022-08-11T15:53:21;33.80;46.20
40538;DHT22;27925;41.874;12.526;2022-08-11T15:55:48;33.80;45.70
40538;DHT22;27925;41.874;12.526;2022-08-11T15:58:16;33.70;45.80
40538;DHT22;27925;41.874;12.526;2022-08-11T16:01:02;33.80;45.60
40538;DHT22;27925;41.874;12.526;2022-08-11T16:03:55;33.90;45.70
40538;DHT22;27925;41.874;12.526;2022-08-11T16:07:02;33.90;45.10
40538;DHT22;27925;41.874;12.526;2022-08-11T16:09:36;33.90;45.30
40538;DHT22;27925;41.874;12.526;2022-08-11T16:12:07;34.00;45.00
40538;DHT22;27925;41.874;12.526;2022-08-11T16:14:38;33.90;44.60
40538;DHT22;27925;41.874;12.526;2022-08-11T16:17:26;33.90;44.70
40538;DHT22;27925;41.874;12.526;2022-08-11T16:19:56;33.90;44.50
40538;DHT22;27925;41.874;12.526;2022-08-11T16:22:29;33.90;44.70
40538;DHT22;27925;41.874;12.526;2022-08-11T16:25:16;33.90;44.60
40538;DHT22;27925;41.874;12.526;2022-08-11T16:27:45;33.90;44.90
40538;DHT22;27925;41.874;12.526;2022-08-11T16:30:12;33.90;44.70
40538;DHT22;27925;41.874;12.526;2022-08-11T16:32:43;33.90;44.70
40538;DHT22;27925;41.874;12.526;2022-08-11T16:35:14;33.90;44.80
40538;DHT22;27925;41.874;12.526;2022-08-11T16:38:00;33.80;44.50
40538;DHT22;27925;41.874;12.526;2022-08-11T16:40:46;33.80;44.30
40538;DHT22;27925;41.874;12.526;2022-08-11T16:43:16;33.70;43.80
40538;DHT22;27925;41.874;12.526;2022-08-11T16:46:03;33.70;43.90
40538;DHT22;27925;41.874;12.526;2022-08-11T16:48:48;33.70;44.00
40538;DHT22;27925;41.874;12.526;2022-08-11T16:51:15;33.60;43.90
40538;DHT22;27925;41.874;12.526;2022-08-11T16:53:42;33.40;43.70
40538;DHT22;27925;41.874;12.526;2022-08-11T16:56:11;33.30;43.90
40538;DHT22;27925;41.874;12.526;2022-08-11T16:58:41;33.30;43.90
40538;DHT22;27925;41.874;12.526;2022-08-11T17:01:27;33.30;43.80
40538;DHT22;27925;41.874;12.526;2022-08-11T17:03:59;33.30;44.00
40538;DHT22;27925;41.874;12.526;2022-08-11T17:06:46;33.20;43.90
40538;DHT22;27925;41.874;12.526;2022-08-11T17:09:34;33.20;44.00
40538;DHT22;27925;41.874;12.526;2022-08-11T17:12:25;33.00;44.00
40538;DHT22;27925;41.874;12.526;2022-08-11T17:15:16;32.90;44.00
40538;DHT22;27925;41.874;12.526;2022-08-11T17:18:02;32.80;44.20
40538;DHT22;27925;41.874;12.526;2022-08-11T17:20:30;33.00;44.00
40538;DHT22;27925;41.874;12.526;2022-08-11T17:22:57;33.10;43.70
40538;DHT22;27925;41.874;12.526;2022-08-11T17:25:43;33.20;43.30
40538;DHT22;27925;41.874;12.526;2022-08-11T17:28:11;33.20;43.50
40538;DHT22;27925;41.874;12.526;2022-08-11T17:30:38;33.10;43.70
40538;DHT22;27925;41.874;12.526;2022-08-11T17:33:24;32.90;43.40
40538;DHT22;27925;41.874;12.526;2022-08-11T17:36:21;32.80;43.60
40538;DHT22;27925;41.874;12.526;2022-08-11T17:38:49;32.60;43.70
40538;DHT22;27925;41.874;12.526;2022-08-11T17:41:15;32.50;43.70
40538;DHT22;27925;41.874;12.526;2022-08-11T17:44:02;32.30;43.40
40538;DHT22;27925;41.874;12.526;2022-08-11T17:46:50;32.20;43.60
40538;DHT22;27925;41.874;12.526;2022-08-11T17:49:37;32.00;43.40
40538;DHT22;27925;41.874;12.526;2022-08-11T17:52:06;31.90;43.70
40538;DHT22;27925;41.874;12.526;2022-08-11T17:54:51;31.90;44.30
40538;DHT22;27925;41.874;12.526;2022-08-11T17:57:38;31.70;44.50
40538;DHT22;27925;41.874;12.526;2022-08-11T18:00:23;31.60;44.80
40538;DHT22;27925;41.874;12.526;2022-08-11T18:02:51;31.60;45.20
40538;DHT22;27925;41.874;12.526;2022-08-11T18:05:37;31.50;45.40
40538;DHT22;27925;41.874;12.526;2022-08-11T18:08:10;31.40;45.90
40538;DHT22;27925;41.874;12.526;2022-08-11T18:10:56;31.30;46.40
40538;DHT22;27925;41.874;12.526;2022-08-11T18:13:42;31.20;46.70
40538;DHT22;27925;41.874;12.526;2022-08-11T18:16:28;31.10;47.30
40538;DHT22;27925;41.874;12.526;2022-08-11T18:19:12;31.00;47.80
40538;DHT22;27925;41.874;12.526;2022-08-11T18:22:07;31.00;48.20
40538;DHT22;27925;41.874;12.526;2022-08-11T18:24:59;30.90;47.70
40538;DHT22;27925;41.874;12.526;2022-08-11T18:27:46;30.90;49.20
40538;DHT22;27925;41.874;12.526;2022-08-11T18:30:35;30.80;49.70
40538;DHT22;27925;41.874;12.526;2022-08-11T18:33:21;30.70;50.00
40538;DHT22;27925;41.874;12.526;2022-08-11T18:36:11;30.60;50.20
40538;DHT22;27925;41.874;12.526;2022-08-11T18:38:57;30.60;50.60
40538;DHT22;27925;41.874;12.526;2022-08-11T18:41:44;30.60;51.00
40538;DHT22;27925;41.874;12.526;2022-08-11T18:44:32;30.50;51.20
40538;DHT22;27925;41.874;12.526;2022-08-11T18:47:20;30.40;50.60
40538;DHT22;27925;41.874;12.526;2022-08-11T18:50:08;30.30;51.80
40538;DHT22;27925;41.874;12.526;2022-08-11T18:52:55;30.30;52.00
40538;DHT22;27925;41.874;12.526;2022-08-11T18:55:42;30.20;52.20
40538;DHT22;27925;41.874;12.526;2022-08-11T18:58:29;30.20;52.40
40538;DHT22;27925;41.874;12.526;2022-08-11T19:01:15;30.20;52.50
40538;DHT22;27925;41.874;12.526;2022-08-11T19:04:03;30.10;52.60
40538;DHT22;27925;41.874;12.526;2022-08-11T19:06:52;30.10;52.40
40538;DHT22;27925;41.874;12.526;2022-08-11T19:09:40;30.10;52.50
40538;DHT22;27925;41.874;12.526;2022-08-11T19:12:25;30.10;52.70
40538;DHT22;27925;41.874;12.526;2022-08-11T19:15:12;30.10;52.90
40538;DHT22;27925;41.874;12.526;2022-08-11T19:17:58;30.10;52.80
40538;DHT22;27925;41.874;12.526;2022-08-11T19:20:43;30.10;53.10
40538;DHT22;27925;41.874;12.526;2022-08-11T19:23:32;30.00;52.80
40538;DHT22;27925;41.874;12.526;2022-08-11T19:26:19;30.00;53.10
40538;DHT22;27925;41.874;12.526;2022-08-11T19:29:04;30.00;53.20
40538;DHT22;27925;41.874;12.526;2022-08-11T19:31:51;29.90;53.20
40538;DHT22;27925;41.874;12.526;2022-08-11T19:34:36;29.90;53.60
40538;DHT22;27925;41.874;12.526;2022-08-11T19:37:22;29.90;53.90
40538;DHT22;27925;41.874;12.526;2022-08-11T19:40:09;29.80;54.10
40538;DHT22;27925;41.874;12.526;2022-08-11T19:42:56;29.80;54.20
40538;DHT22;27925;41.874;12.526;2022-08-11T19:45:41;29.80;54.30
40538;DHT22;27925;41.874;12.526;2022-08-11T19:48:27;29.80;54.40
40538;DHT22;27925;41.874;12.526;2022-08-11T19:51:15;29.70;54.70
40538;DHT22;27925;41.874;12.526;2022-08-11T19:54:01;29.70;54.80
40538;DHT22;27925;41.874;12.526;2022-08-11T19:56:46;29.70;54.90
40538;DHT22;27925;41.874;12.526;2022-08-11T19:59:32;29.70;55.10
40538;DHT22;27925;41.874;12.526;2022-08-11T20:02:17;29.60;54.30
40538;DHT22;27925;41.874;12.526;2022-08-11T20:05:02;29.50;53.70
40538;DHT22;27925;41.874;12.526;2022-08-11T20:07:47;29.50;53.40
40538;DHT22;27925;41.874;12.526;2022-08-11T20:10:33;29.30;52.80
40538;DHT22;27925;41.874;12.526;2022-08-11T20:13:21;29.20;53.00
40538;DHT22;27925;41.874;12.526;2022-08-11T20:16:07;29.20;53.20
40538;DHT22;27925;41.874;12.526;2022-08-11T20:18:53;29.20;53.60
40538;DHT22;27925;41.874;12.526;2022-08-11T20:21:39;29.20;53.30
40538;DHT22;27925;41.874;12.526;2022-08-11T20:24:24;29.00;53.40
40538;DHT22;27925;41.874;12.526;2022-08-11T20:27:08;28.90;52.60
40538;DHT22;27925;41.874;12.526;2022-08-11T20:29:55;28.90;53.90
40538;DHT22;27925;41.874;12.526;2022-08-11T20:32:41;28.90;54.10